Time;durP1;ratioP1;P1;durP2;ratioP2;P2;SDS_P1;SDS_P2;PMS_P1;PMS_P2;Temp;Humidity;BMP_temperature;BMP_pressure;BME280_temperature;BME280_humidity;BME280_pressure;Samples;Min_cycle;Max_cycle;Signal;HPM_P1;HPM_P2
2023/09/25 00:01:21;;;;;;;1.27;1.23;;;14.40;99.90;;;14.55;73.00;101374.59;4914226;29;21002;-69
2023/09/25 00:03:49;;;;;;;0.90;0.90;;;14.30;99.90;;;14.55;73.19;101371.97;4912207;29;21109;-69
2023/09/25 00:06:16;;;;;;;1.10;1.10;;;14.30;99.90;;;14.54;73.21;101375.56;4899410;29;20641;-71
2023/09/25 00:08:43;;;;;;;1.20;1.10;;;14.30;99.90;;;14.50;73.10;101377.56;4912621;29;20662;-68
2023/09/25 00:11:10;;;;;;;1.10;1.10;;;14.20;99.90;;;14.43;73.23;101380.78;4915089;29;21076;-68
2023/09/25 00:13:37;;;;;;;1.57;1.47;;;14.20;99.90;;;14.38;73.19;101377.66;4910209;29;21209;-67
2023/09/25 00:16:06;;;;;;;1.17;1.07;;;14.10;99.90;;;14.34;72.92;101387.59;4913910;29;20724;-69
2023/09/25 00:18:34;;;;;;;1.50;1.40;;;14.10;99.90;;;14.30;73.42;101385.31;4909510;29;20652;-68
2023/09/25 00:21:01;;;;;;;1.50;1.40;;;14.10;99.90;;;14.27;73.56;101383.69;4925613;29;20790;-66
2023/09/25 00:23:28;;;;;;;1.37;1.27;;;14.00;99.90;;;14.23;73.42;101378.78;4928813;29;20636;-67
2023/09/25 00:26:06;;;;;;;1.10;1.10;;;14.00;99.90;;;14.19;74.14;101382.59;4912844;29;20665;-68
2023/09/25 00:28:34;;;;;;;1.30;1.20;;;13.90;99.90;;;14.14;74.34;101379.50;4914290;29;20630;-69
2023/09/25 00:31:01;;;;;;;1.40;1.30;;;13.90;99.90;;;14.13;74.41;101386.53;4912702;29;20650;-69
2023/09/25 00:33:28;;;;;;;1.40;1.30;;;13.90;99.90;;;14.11;74.65;101391.06;4929353;29;20733;-67
2023/09/25 00:35:56;;;;;;;1.53;1.40;;;13.90;99.90;;;14.11;74.74;101375.31;4929123;29;20646;-68
2023/09/25 00:38:23;;;;;;;1.40;1.30;;;13.80;99.90;;;14.05;74.84;101383.66;4914997;29;20626;-69
2023/09/25 00:40:49;;;;;;;1.13;1.10;;;13.80;99.90;;;13.98;75.10;101385.06;4916012;29;20633;-69
2023/09/25 00:43:16;;;;;;;1.13;1.13;;;13.70;99.90;;;13.87;75.25;101385.84;4910478;29;21266;-69
2023/09/25 00:45:46;;;;;;;1.27;1.27;;;13.70;99.90;;;13.83;75.77;101378.31;4912607;29;21284;-69
2023/09/25 00:48:19;;;;;;;1.60;1.50;;;13.60;99.90;;;13.81;75.96;101377.59;4912989;29;20630;-69
2023/09/25 00:50:48;;;;;;;0.83;0.83;;;13.60;99.90;;;13.75;76.24;101372.81;4908101;29;20642;-70
2023/09/25 00:53:16;;;;;;;1.20;1.10;;;13.60;99.90;;;13.70;76.12;101367.88;4911054;29;20790;-68
2023/09/25 00:55:43;;;;;;;1.30;1.30;;;13.50;99.90;;;13.65;76.17;101362.13;4910183;29;21023;-70
2023/09/25 00:58:11;;;;;;;1.03;1.03;;;13.40;99.90;;;13.58;76.50;101363.56;4910542;29;20705;-68
2023/09/25 01:00:38;;;;;;;1.47;1.37;;;13.40;99.90;;;13.54;76.71;101359.47;4926132;29;20634;-67
2023/09/25 01:03:06;;;;;;;0.97;0.97;;;13.30;99.90;;;13.46;76.64;101367.03;4909664;29;20692;-68
2023/09/25 01:05:37;;;;;;;1.30;1.20;;;13.30;99.90;;;13.37;76.71;101361.63;4913388;29;20737;-69
2023/09/25 01:08:06;;;;;;;1.17;1.10;;;13.20;99.90;;;13.32;76.73;101361.13;4926833;29;20710;-67
2023/09/25 01:10:33;;;;;;;1.53;1.27;;;13.10;99.90;;;13.24;77.11;101356.44;4913670;29;20745;-67
2023/09/25 01:13:01;;;;;;;1.30;1.20;;;13.00;99.90;;;13.12;77.23;101358.13;4911609;29;21027;-67
2023/09/25 01:15:28;;;;;;;1.53;1.47;;;12.90;99.90;;;13.08;78.00;101354.06;4922364;29;20662;-67
2023/09/25 01:17:56;;;;;;;2.37;1.20;;;12.90;99.90;;;13.07;78.04;101354.19;4905873;29;20622;-69
2023/09/25 01:20:24;;;;;;;1.47;1.37;;;12.90;99.90;;;13.02;78.40;101338.75;4913098;29;20670;-69
2023/09/25 01:22:51;;;;;;;2.17;1.40;;;12.80;99.90;;;12.98;78.13;101350.41;4909256;29;21471;-69
2023/09/25 01:25:20;;;;;;;2.43;1.87;;;12.80;99.90;;;12.95;78.32;101352.38;4928089;29;20681;-69
2023/09/25 01:27:47;;;;;;;1.70;1.57;;;12.70;99.90;;;12.95;78.25;101349.75;4905004;29;20638;-69
2023/09/25 01:30:16;;;;;;;1.50;1.40;;;12.70;99.90;;;12.97;78.92;101353.94;4894946;29;20650;-69
2023/09/25 01:32:45;;;;;;;2.67;1.60;;;12.80;99.90;;;12.96;79.04;101356.69;4910844;29;20717;-68
2023/09/25 01:35:26;;;;;;;2.77;2.03;;;12.70;99.90;;;13.01;79.13;101363.25;4913491;29;20706;-67
2023/09/25 01:37:59;;;;;;;3.37;1.73;;;12.80;99.90;;;13.03;78.68;101363.19;4911476;29;21216;-69
2023/09/25 01:40:27;;;;;;;2.10;1.87;;;12.80;99.90;;;12.99;78.47;101353.88;4913263;29;20631;-68
2023/09/25 01:42:54;;;;;;;2.37;1.70;;;12.80;99.90;;;12.95;78.11;101357.63;4912203;29;20661;-67
2023/09/25 01:45:22;;;;;;;2.00;1.87;;;12.80;99.90;;;12.95;77.66;101355.00;4902895;29;20794;-67
2023/09/25 01:47:52;;;;;;;1.90;1.80;;;12.80;99.90;;;12.93;77.79;101356.88;4928128;29;20638;-69
2023/09/25 01:50:22;;;;;;;1.13;1.03;;;12.80;99.90;;;12.93;77.49;101349.03;4910864;29;20665;-67
2023/09/25 01:52:54;;;;;;;1.97;1.43;;;12.70;99.90;;;12.93;78.13;101349.03;4912554;29;20670;-70
2023/09/25 01:55:21;;;;;;;1.40;1.40;;;12.70;99.90;;;12.91;77.93;101343.91;4911547;29;20689;-69
2023/09/25 01:57:48;;;;;;;1.40;1.00;;;12.70;99.90;;;12.88;78.20;101346.75;4906224;29;20720;-68
2023/09/25 02:00:18;;;;;;;1.70;1.33;;;12.70;99.90;;;12.86;77.77;101340.75;4926078;29;20662;-67
2023/09/25 02:02:46;;;;;;;1.60;1.50;;;12.70;99.90;;;12.82;77.55;101343.72;4906877;29;20626;-68
2023/09/25 02:05:14;;;;;;;3.03;1.37;;;12.60;99.90;;;12.77;77.22;101337.97;4927347;29;20654;-68
2023/09/25 02:07:41;;;;;;;1.43;1.43;;;12.60;99.90;;;12.72;77.36;101346.13;4909745;29;20650;-68
2023/09/25 02:10:09;;;;;;;1.57;1.47;;;12.50;99.90;;;12.69;77.27;101340.28;4928150;29;20661;-69
2023/09/25 02:12:36;;;;;;;2.20;2.00;;;12.50;99.90;;;12.68;77.05;101341.22;4908808;29;20666;-70
2023/09/25 02:15:07;;;;;;;1.83;1.73;;;12.50;99.90;;;12.66;77.61;101336.09;4915651;29;20641;-69
2023/09/25 02:17:34;;;;;;;1.50;1.43;;;12.50;99.90;;;12.67;77.39;101331.69;4925299;29;20629;-70
2023/09/25 02:22:59;;;;;;;1.50;1.40;;;12.40;99.90;;;12.60;77.79;101327.81;4897651;29;20738;-69
2023/09/25 02:25:26;;;;;;;1.87;1.63;;;12.40;99.90;;;12.59;78.11;101326.97;4912606;29;20646;-70
2023/09/25 02:27:55;;;;;;;1.47;1.40;;;12.40;99.90;;;12.60;76.97;101330.44;4909979;29;20741;-68
2023/09/25 02:30:22;;;;;;;1.83;1.73;;;12.40;99.90;;;12.59;76.75;101320.91;4911224;29;20630;-70
2023/09/25 02:32:49;;;;;;;1.20;1.20;;;12.40;99.90;;;12.57;77.37;101328.03;4911438;29;21269;-69
2023/09/25 02:35:16;;;;;;;1.60;1.50;;;12.40;99.90;;;12.57;77.04;101320.16;4912868;29;20741;-67
2023/09/25 02:37:45;;;;;;;1.50;1.40;;;12.40;99.90;;;12.52;77.53;101319.66;4903198;29;20780;-70
2023/09/25 02:40:13;;;;;;;2.93;1.50;;;12.30;99.90;;;12.41;77.95;101310.75;4912995;29;21080;-70
2023/09/25 02:42:42;;;;;;;1.33;1.23;;;12.30;99.90;;;12.36;78.24;101312.88;4909895;29;20648;-69
2023/09/25 02:45:09;;;;;;;1.23;1.20;;;12.20;99.90;;;12.32;78.56;101308.78;4908995;29;20650;-69
2023/09/25 02:47:36;;;;;;;1.60;1.30;;;12.10;99.90;;;12.27;78.71;101310.03;4925752;29;21080;-68
2023/09/25 02:50:05;;;;;;;1.40;1.17;;;12.10;99.90;;;12.19;78.85;101317.56;4909793;29;21140;-68
2023/09/25 02:52:32;;;;;;;1.90;1.80;;;12.00;99.90;;;12.11;78.96;101323.34;4925492;29;20653;-67
2023/09/25 02:55:03;;;;;;;1.33;1.23;;;12.00;99.90;;;12.06;78.60;101314.94;4911841;29;21006;-69
2023/09/25 02:57:30;;;;;;;1.10;1.10;;;11.90;99.90;;;12.08;78.93;101313.06;4911140;29;21219;-68
2023/09/25 02:59:57;;;;;;;1.73;1.30;;;11.90;99.90;;;12.08;78.73;101313.06;4906440;29;20670;-68
2023/09/25 03:02:25;;;;;;;1.30;1.17;;;11.90;99.90;;;12.08;78.15;101320.91;4906008;29;20642;-66
2023/09/25 03:04:53;;;;;;;1.00;1.00;;;11.90;99.90;;;12.04;78.31;101314.22;4906231;29;20650;-69
2023/09/25 03:07:21;;;;;;;1.60;0.90;;;11.90;99.90;;;12.06;78.11;101316.72;4908159;29;21086;-69
2023/09/25 03:09:48;;;;;;;1.07;1.07;;;11.90;99.90;;;12.03;78.67;101312.53;4918864;29;20753;-67
2023/09/25 03:12:15;;;;;;;0.80;0.80;;;11.90;99.90;;;12.04;78.34;101316.84;4912828;29;20637;-67
2023/09/25 03:14:43;;;;;;;2.07;0.93;;;11.90;99.90;;;12.00;78.24;101317.13;4909448;29;20734;-67
2023/09/25 03:17:10;;;;;;;2.00;1.20;;;11.80;99.90;;;11.96;78.65;101316.50;4923808;29;20627;-68
2023/09/25 03:19:38;;;;;;;1.80;1.27;;;11.80;99.90;;;11.92;78.48;101317.66;4907345;29;21228;-68
2023/09/25 03:22:05;;;;;;;1.50;1.40;;;11.80;99.90;;;11.90;78.54;101319.53;4909094;29;20669;-69
2023/09/25 03:24:33;;;;;;;1.67;1.57;;;11.70;99.90;;;11.89;78.86;101325.69;4908472;29;20642;-68
2023/09/25 03:27:00;;;;;;;1.93;1.83;;;11.70;99.90;;;11.85;78.52;101319.00;4904436;29;20673;-69
2023/09/25 03:29:27;;;;;;;1.50;1.33;;;11.70;99.90;;;11.83;79.30;101318.25;4927285;29;20622;-69
2023/09/25 03:31:54;;;;;;;1.80;1.70;;;11.70;99.90;;;11.83;79.36;101315.66;4905707;29;21338;-69
2023/09/25 03:34:21;;;;;;;2.50;1.90;;;11.70;99.90;;;11.86;78.94;101314.63;4908201;29;20886;-70
2023/09/25 03:36:48;;;;;;;1.03;1.03;;;11.70;99.90;;;11.87;78.89;101317.13;4916416;29;20683;-69
2023/09/25 03:39:17;;;;;;;1.73;1.63;;;11.70;99.90;;;11.86;78.84;101310.19;4908715;29;20657;-69
2023/09/25 03:41:44;;;;;;;1.80;1.70;;;11.70;99.90;;;11.86;78.21;101312.81;4911349;29;21289;-68
2023/09/25 03:44:11;;;;;;;1.43;1.33;;;11.70;99.90;;;11.89;78.31;101317.00;4912991;29;20990;-69
2023/09/25 03:46:38;;;;;;;3.40;2.03;;;11.70;99.90;;;11.86;77.92;101312.00;4910686;29;20670;-69
2023/09/25 03:49:07;;;;;;;1.40;1.40;;;11.70;99.90;;;11.85;78.93;101310.31;4902211;29;20665;-69
2023/09/25 03:51:35;;;;;;;1.03;1.03;;;11.70;99.90;;;11.83;77.94;101315.66;4910784;29;21326;-69
2023/09/25 03:54:02;;;;;;;1.17;1.17;;;11.70;99.90;;;11.81;78.75;101314.91;4924525;29;20674;-69
2023/09/25 03:56:29;;;;;;;1.83;1.73;;;11.60;99.90;;;11.78;78.28;101317.72;4913614;29;20705;-67
2023/09/25 03:58:56;;;;;;;2.60;1.97;;;11.60;99.90;;;11.77;78.88;101313.44;4912987;29;21180;-69
2023/09/25 04:01:24;;;;;;;1.57;1.47;;;11.60;99.90;;;11.78;78.41;101315.09;4916682;29;20629;-68
2023/09/25 04:03:51;;;;;;;1.87;1.23;;;11.60;99.90;;;11.78;78.84;101312.50;4928812;29;20626;-67
2023/09/25 04:06:18;;;;;;;1.70;1.60;;;11.60;99.90;;;11.78;78.04;101322.94;4915365;29;20723;-69
2023/09/25 04:08:45;;;;;;;1.77;1.67;;;11.60;99.90;;;11.76;78.29;101318.75;4930108;29;20629;-69
2023/09/25 04:11:12;;;;;;;3.23;1.80;;;11.60;99.90;;;11.77;78.89;101320.44;4914485;29;20745;-68
2023/09/25 04:13:40;;;;;;;1.50;1.40;;;11.60;99.90;;;11.80;77.93;101323.69;4913436;29;20673;-67
2023/09/25 04:16:12;;;;;;;1.27;1.23;;;11.60;99.90;;;11.74;78.62;101324.09;4929777;29;21065;-68
2023/09/25 04:18:39;;;;;;;1.77;1.67;;;11.60;99.90;;;11.71;79.34;101332.16;4913780;29;21148;-70
2023/09/25 04:21:06;;;;;;;1.80;1.70;;;11.60;99.90;;;11.64;78.65;101325.59;4910693;29;21057;-70
2023/09/25 04:23:34;;;;;;;1.40;1.30;;;11.50;99.90;;;11.63;79.35;101330.00;4912082;29;21105;-67
2023/09/25 04:26:01;;;;;;;3.73;1.47;;;11.50;99.90;;;11.64;79.15;101334.28;4913924;29;21087;-69
2023/09/25 04:28:28;;;;;;;1.60;1.33;;;11.50;99.90;;;11.59;79.97;101328.53;4913555;29;21266;-70
2023/09/25 04:30:59;;;;;;;1.63;1.53;;;11.50;99.90;;;11.58;80.19;101339.09;4914398;29;20685;-69
2023/09/25 04:33:27;;;;;;;2.47;2.30;;;11.40;99.90;;;11.52;80.21;101332.47;4914847;29;20680;-69
2023/09/25 04:36:01;;;;;;;2.50;1.40;;;11.40;99.90;;;11.49;79.34;101337.06;4908091;29;20659;-69
2023/09/25 04:38:30;;;;;;;1.53;1.43;;;11.40;99.90;;;11.44;79.30;101329.50;4913250;29;20713;-68
2023/09/25 04:40:57;;;;;;;2.10;1.90;;;11.30;99.90;;;11.42;79.22;101330.53;4927174;29;20653;-69
2023/09/25 04:43:24;;;;;;;2.53;2.27;;;11.30;99.90;;;11.41;79.50;101326.25;4904845;29;20623;-65
2023/09/25 04:45:52;;;;;;;2.10;1.90;;;11.30;99.90;;;11.41;78.94;101323.66;4927628;29;20684;-69
2023/09/25 04:48:19;;;;;;;2.13;2.03;;;11.30;99.90;;;11.42;78.98;101326.16;4912845;29;20807;-67
2023/09/25 04:50:46;;;;;;;1.97;1.87;;;11.30;99.90;;;11.44;79.45;101333.88;4914506;29;20645;-69
2023/09/25 04:53:13;;;;;;;2.37;1.73;;;11.30;99.90;;;11.46;78.87;101332.00;4928797;29;20717;-69
2023/09/25 04:55:41;;;;;;;2.20;2.10;;;11.30;99.90;;;11.48;79.15;101330.13;4912572;29;20697;-69
2023/09/25 04:58:08;;;;;;;1.60;1.50;;;11.30;99.90;;;11.47;79.33;101328.47;4914903;29;20717;-68
2023/09/25 05:00:35;;;;;;;2.33;1.50;;;11.30;99.90;;;11.54;78.63;101335.81;4905989;29;21096;-71
2023/09/25 05:03:02;;;;;;;2.40;2.20;;;11.30;99.90;;;11.55;79.57;101339.25;4907809;29;20657;-68
2023/09/25 05:05:31;;;;;;;1.80;1.70;;;11.40;99.90;;;11.56;79.14;101343.56;4913989;29;20688;-70
2023/09/25 05:07:58;;;;;;;2.00;1.83;;;11.40;99.90;;;11.56;79.09;101338.34;4914026;29;20677;-69
2023/09/25 05:10:27;;;;;;;3.23;2.87;;;11.40;99.90;;;11.56;79.53;101344.38;4913052;29;20650;-68
2023/09/25 05:12:56;;;;;;;4.07;3.43;;;11.40;99.90;;;11.60;79.26;101335.44;4910521;29;20658;-70
2023/09/25 05:15:24;;;;;;;2.37;2.17;;;11.40;99.90;;;11.59;79.16;101348.59;4914250;29;20677;-68
2023/09/25 05:17:51;;;;;;;2.27;2.07;;;11.40;99.90;;;11.54;79.42;101346.25;4892360;29;20645;-69
2023/09/25 05:20:22;;;;;;;2.70;2.10;;;11.40;99.90;;;11.51;79.45;101349.09;4911784;29;20642;-70
2023/09/25 05:22:52;;;;;;;2.40;2.20;;;11.40;99.90;;;11.51;80.03;101351.72;4917636;29;20994;-68
2023/09/25 05:25:20;;;;;;;2.57;2.07;;;11.40;99.90;;;11.52;79.88;101355.97;4912236;29;20670;-70
2023/09/25 05:27:54;;;;;;;1.80;1.70;;;11.40;99.90;;;11.56;80.60;101354.03;4912420;29;20650;-69
2023/09/25 05:30:21;;;;;;;3.27;2.20;;;11.40;99.90;;;11.60;79.37;101353.72;4904001;29;21127;-68
2023/09/25 05:32:50;;;;;;;2.53;2.30;;;11.40;99.90;;;11.72;79.57;101359.97;4906707;29;20898;-67
2023/09/25 05:35:19;;;;;;;2.63;2.43;;;11.50;99.90;;;11.85;79.12;101342.53;4923973;29;20688;-68
2023/09/25 05:37:48;;;;;;;3.13;2.37;;;11.70;99.90;;;12.01;78.10;101355.44;4915137;29;20634;-69
2023/09/25 05:40:17;;;;;;;1.70;1.60;;;11.80;99.90;;;12.27;77.83;101355.34;4927048;29;20705;-69
2023/09/25 05:42:49;;;;;;;2.03;1.87;;;12.00;99.90;;;12.58;76.81;101363.75;4912670;29;20633;-69
2023/09/25 05:45:20;;;;;;;1.53;1.47;;;12.30;99.90;;;12.97;75.49;101361.81;4911212;29;20658;-69
2023/09/25 05:47:47;;;;;;;2.07;1.97;;;12.60;99.90;;;13.48;73.56;101372.19;4907700;29;21296;-68
2023/09/25 05:50:15;;;;;;;3.00;2.53;;;13.10;99.90;;;13.97;71.21;101378.97;4909567;29;20626;-69
2023/09/25 05:52:42;;;;;;;2.97;2.43;;;13.60;99.90;;;14.44;68.94;101378.03;4912890;29;20973;-69
2023/09/25 05:55:10;;;;;;;2.93;2.30;;;14.00;99.90;;;15.02;67.31;101386.69;4909943;29;20677;-68
2023/09/25 05:57:37;;;;;;;3.50;2.03;;;14.60;99.90;;;15.52;64.88;101378.28;4912489;29;20741;-68
2023/09/25 06:00:11;;;;;;;2.10;2.00;;;15.10;99.90;;;15.85;62.86;101372.03;4910897;29;20736;-69
2023/09/25 06:02:42;;;;;;;2.03;1.60;;;15.50;99.90;;;16.16;61.38;101389.63;4905010;29;20732;-68
2023/09/25 06:05:14;;;;;;;2.10;1.70;;;15.80;99.90;;;16.54;60.53;101383.78;4905850;29;21223;-69
2023/09/25 06:07:44;;;;;;;2.70;2.17;;;16.20;99.90;;;16.95;58.82;101376.63;4925965;28;20642;-68
2023/09/25 06:10:12;;;;;;;1.83;1.73;;;16.80;99.90;;;17.48;57.47;101366.63;4913101;29;20625;-68
2023/09/25 06:12:39;;;;;;;2.50;2.20;;;17.30;99.90;;;17.93;55.45;101372.25;4912175;29;21659;-70
2023/09/25 06:15:10;;;;;;;1.90;1.80;;;17.80;99.90;;;18.41;54.34;101367.75;4909166;29;20696;-69
2023/09/25 06:17:42;;;;;;;2.10;2.00;;;18.30;99.90;;;18.90;53.33;101371.94;4900218;29;21208;-68
2023/09/25 06:20:15;;;;;;;2.17;2.07;;;18.80;99.90;;;19.47;51.54;101368.16;4913612;29;20649;-68
2023/09/25 06:22:46;;;;;;;2.67;2.00;;;;;;;20.13;50.13;101372.06;4910625;29;20641;-68
2023/09/25 06:25:17;;;;;;;1.90;1.80;;;19.90;99.90;;;20.61;49.02;101376.06;4904985;29;20645;-69
2023/09/25 06:27:46;;;;;;;1.90;1.80;;;20.40;99.10;;;21.08;47.79;101379.16;4924806;29;20634;-70
2023/09/25 06:30:14;;;;;;;3.70;2.30;;;20.80;98.20;;;21.36;47.76;101376.09;4913122;29;20660;-69
2023/09/25 06:32:41;;;;;;;2.10;2.00;;;21.20;97.50;;;21.85;46.68;101366.41;4909328;29;21409;-69
2023/09/25 06:35:09;;;;;;;2.17;2.07;;;21.60;96.70;;;22.26;45.16;101386.66;4908305;29;21303;-69
2023/09/25 06:37:36;;;;;;;2.30;2.20;;;22.00;95.50;;;22.52;45.29;101389.13;4909464;29;20653;-71
2023/09/25 06:40:09;;;;;;;2.10;2.00;;;22.30;95.00;;;22.62;45.41;101386.28;4914200;29;20634;-69
2023/09/25 06:42:39;;;;;;;4.50;2.30;;;22.50;94.70;;;22.98;44.32;101395.50;4911252;29;20654;-71
2023/09/25 06:45:08;;;;;;;2.53;2.33;;;22.80;93.80;;;23.34;43.62;101386.03;4913992;29;20641;-68
2023/09/25 06:47:36;;;;;;;2.30;2.20;;;23.10;93.00;;;23.77;43.06;101384.59;4909921;29;20642;-69
2023/09/25 06:50:04;;;;;;;2.10;2.00;;;23.50;92.70;;;24.16;41.98;101384.50;4903736;29;20659;-68
2023/09/25 06:52:31;;;;;;;2.37;2.17;;;24.00;91.50;;;24.44;42.14;101388.25;4904718;29;20733;-70
2023/09/25 06:54:58;;;;;;;2.70;2.40;;;24.30;90.90;;;24.54;41.35;101381.63;4910359;29;20670;-72
2023/09/25 06:57:25;;;;;;;2.23;2.13;;;24.40;90.10;;;24.68;41.74;101390.66;4907325;29;20644;-68
2023/09/25 06:59:52;;;;;;;2.17;2.03;;;24.60;89.90;;;25.01;41.02;101388.47;4903484;29;20635;-70
2023/09/25 07:02:20;;;;;;;2.47;2.27;;;24.80;88.80;;;25.39;40.02;101389.97;4921346;29;20661;-70
2023/09/25 07:04:47;;;;;;;2.70;2.57;;;25.10;87.30;;;25.47;40.51;101391.75;4917714;29;20626;-68
2023/09/25 07:07:15;;;;;;;2.40;2.30;;;25.30;86.40;;;25.61;40.09;101381.00;4911383;29;20654;-69
2023/09/25 07:09:42;;;;;;;2.80;2.60;;;25.50;85.10;;;25.83;39.71;101385.31;4904747;29;21006;-70
2023/09/25 07:12:14;;;;;;;2.50;2.30;;;25.70;84.60;;;26.12;39.43;101385.22;4913372;29;20721;-70
2023/09/25 07:14:40;;;;;;;2.43;2.33;;;25.90;83.80;;;26.29;38.95;101384.91;4921907;29;20725;-71
2023/09/25 07:17:08;;;;;;;2.47;2.30;;;26.20;82.20;;;26.29;39.58;101391.09;4912381;29;20729;-71
2023/09/25 07:19:35;;;;;;;3.00;2.80;;;26.30;82.20;;;26.56;38.79;101398.28;4907744;29;20697;-71
2023/09/25 07:22:02;;;;;;;2.87;2.73;;;26.50;81.20;;;26.96;38.06;101394.00;4909110;29;20717;-72
2023/09/25 07:24:29;;;;;;;2.20;2.00;;;26.80;80.00;;;27.25;37.51;101403.63;4914537;29;20637;-71
2023/09/25 07:26:56;;;;;;;2.57;2.37;;;27.20;79.40;;;27.30;38.11;101393.16;4912591;29;20741;-69
2023/09/25 07:29:23;;;;;;;2.70;2.50;;;27.50;78.20;;;27.65;37.91;101394.72;4913952;29;20634;-70
2023/09/25 07:32:07;;;;;;;2.40;2.30;;;27.80;77.30;;;28.18;36.37;101401.00;4907554;29;20666;-68
2023/09/25 07:34:34;;;;;;;2.70;2.50;;;28.30;75.40;;;28.48;36.10;101396.84;4926465;29;20737;-70
2023/09/25 07:37:04;;;;;;;2.73;2.60;;;28.70;73.50;;;28.84;35.48;101397.22;4915435;29;20685;-70
2023/09/25 07:39:34;;;;;;;2.50;2.40;;;29.10;72.40;;;29.38;34.38;101398.69;4914946;29;21601;-70
2023/09/25 07:42:02;;;;;;;2.07;2.00;;;29.60;70.90;;;29.81;34.19;101397.81;4915877;29;20650;-69
2023/09/25 07:44:33;;;;;;;2.60;2.50;;;30.10;69.30;;;29.97;33.29;101401.84;4916258;29;20640;-70
2023/09/25 07:47:01;;;;;;;2.70;2.50;;;30.20;67.90;;;30.25;33.42;101396.03;4914324;29;21246;-69
2023/09/25 07:49:40;;;;;;;2.37;2.27;;;30.50;67.60;;;30.14;33.26;101407.50;4912757;29;21258;-70
2023/09/25 07:52:15;;;;;;;2.43;2.30;;;30.50;66.00;;;29.48;34.19;101407.09;4915101;29;20663;-70
2023/09/25 07:54:50;;;;;;;2.50;2.40;;;30.10;66.00;;;29.40;35.08;101404.66;4911626;29;20679;-69
2023/09/25 07:57:19;;;;;;;2.20;2.10;;;29.90;66.70;;;29.87;34.24;101404.19;4925870;29;20621;-70
2023/09/25 07:59:48;;;;;;;2.40;2.30;;;30.30;66.10;;;30.55;33.13;101407.78;4911864;29;21217;-69
2023/09/25 08:02:20;;;;;;;2.70;2.50;;;31.00;64.90;;;31.09;32.46;101420.50;4908027;29;21238;-67
2023/09/25 08:04:50;;;;;;;2.13;2.03;;;31.60;63.10;;;31.53;31.89;101417.47;4912738;29;20670;-70
2023/09/25 08:07:18;;;;;;;2.27;2.17;;;32.10;62.30;;;31.97;31.49;101411.63;4913710;29;20635;-67
2023/09/25 08:09:46;;;;;;;4.30;2.17;;;32.50;61.30;;;32.84;30.74;101424.22;4914551;29;20655;-69
2023/09/25 08:12:13;;;;;;;3.33;3.13;;;33.30;60.30;;;33.28;29.31;101427.34;4912369;29;21018;-70
2023/09/25 08:14:40;;;;;;;2.27;2.17;;;33.80;58.10;;;33.85;28.88;101428.16;4911694;29;20673;-71
2023/09/25 08:17:08;;;;;;;2.00;1.90;;;34.30;57.30;;;34.61;27.60;101430.28;4914285;29;20617;-73
2023/09/25 08:19:36;;;;;;;2.03;1.93;;;35.00;56.10;;;35.34;27.36;101440.72;4913779;29;20688;-69
2023/09/25 08:22:03;;;;;;;2.40;2.30;;;35.70;54.80;;;35.46;26.23;101435.97;4930452;29;20641;-71
2023/09/25 08:24:30;;;;;;;1.73;1.73;;;35.90;53.30;;;35.86;25.89;101431.78;4912626;29;21549;-69
2023/09/25 08:26:57;;;;;;;2.53;2.43;;;36.10;53.00;;;36.27;25.83;101432.16;4915567;29;22476;-70
2023/09/25 08:29:24;;;;;;;4.87;4.47;;;36.30;52.40;;;36.36;25.50;101425.97;4913900;29;21229;-68
2023/09/25 08:31:51;;;;;;;4.13;3.83;;;36.30;51.90;;;35.98;25.75;101417.25;4902443;29;20650;-67
2023/09/25 08:34:19;;;;;;;4.20;3.00;;;36.00;51.90;;;35.52;26.29;101424.13;4901016;29;21239;-68
2023/09/25 08:36:46;;;;;;;2.23;2.13;;;35.80;51.90;;;35.08;26.59;101429.56;4928775;29;21250;-69
2023/09/25 08:39:13;;;;;;;3.77;2.40;;;35.60;51.90;;;34.70;26.84;101410.59;4909276;29;20776;-68
2023/09/25 08:41:41;;;;;;;2.60;2.50;;;35.30;51.70;;;35.27;26.55;101415.69;4913028;29;20661;-68
2023/09/25 08:44:10;;;;;;;2.10;2.00;;;35.70;51.70;;;36.49;25.18;101417.38;4913311;29;20717;-69
2023/09/25 08:46:37;;;;;;;2.13;2.00;;;36.70;50.70;;;37.47;24.52;101420.28;4911749;29;20669;-69
2023/09/25 08:49:06;;;;;;;2.27;2.17;;;37.70;49.60;;;38.27;22.87;101414.13;4913145;29;20681;-69
2023/09/25 08:51:38;;;;;;;2.07;1.97;;;38.30;48.40;;;38.76;22.22;101406.94;4928257;29;20626;-69
2023/09/25 08:54:09;;;;;;;2.57;2.37;;;38.80;47.20;;;38.60;22.50;101408.84;4904164;29;21248;-71
2023/09/25 08:56:37;;;;;;;2.40;2.23;;;38.80;46.20;;;38.79;22.28;101407.19;4913120;29;20660;-68
2023/09/25 08:59:04;;;;;;;2.30;2.20;;;38.90;46.30;;;39.01;22.36;101403.28;4927909;29;20689;-70
2023/09/25 09:01:32;;;;;;;4.03;2.43;;;39.10;46.00;;;39.04;21.96;101400.00;4909097;29;20646;-69
2023/09/25 09:03:59;;;;;;;2.93;2.80;;;39.20;45.60;;;38.86;21.64;101392.41;4912426;29;20673;-68
2023/09/25 09:06:26;;;;;;;3.10;2.90;;;39.10;45.30;;;39.20;21.69;101398.84;4902514;29;21002;-68
2023/09/25 09:08:54;;;;;;;2.60;2.50;;;39.30;45.10;;;39.38;21.54;101398.97;4914159;29;20676;-67
2023/09/25 09:11:21;;;;;;;2.67;2.50;;;39.40;44.80;;;39.28;21.13;101399.06;4912417;29;20650;-68
2023/09/25 09:13:49;;;;;;;4.40;2.97;;;39.50;44.00;;;39.28;21.13;101392.78;4913590;29;20673;-69
2023/09/25 09:16:19;;;;;;;2.90;2.70;;;39.40;43.70;;;38.88;21.27;101392.97;4910018;29;20752;-70
2023/09/25 09:18:47;;;;;;;2.87;2.67;;;39.10;43.80;;;39.17;21.08;101400.19;4911918;29;20657;-69
2023/09/25 09:21:26;;;;;;;2.87;2.77;;;39.20;43.80;;;39.25;21.01;101388.69;4906427;29;20643;-71
2023/09/25 09:23:56;;;;;;;2.93;2.60;;;39.40;44.50;;;39.01;20.83;101395.91;4908274;29;20660;-66
2023/09/25 09:26:25;;;;;;;3.03;2.60;;;39.20;43.30;;;38.26;21.50;101396.13;4927581;29;20664;-69
2023/09/25 09:28:55;;;;;;;7.27;2.50;;;38.40;43.50;;;37.06;22.69;101386.66;4928095;29;20634;-69
2023/09/25 09:31:22;;;;;;;2.47;2.27;;;37.00;44.20;;;35.59;23.89;101381.28;4896049;29;20673;-70
2023/09/25 09:33:49;;;;;;;2.50;2.40;;;35.40;45.60;;;34.22;25.13;101377.91;4923913;29;20642;-69
2023/09/25 09:36:19;;;;;;;2.70;2.50;;;33.90;46.80;;;32.60;26.68;101371.31;4910018;29;21018;-68
2023/09/25 09:38:47;;;;;;;3.10;1.90;;;32.40;48.20;;;30.99;28.77;101371.66;4908326;29;21227;-71
2023/09/25 09:41:15;;;;;;;2.33;2.17;;;30.80;49.90;;;29.83;30.37;101370.72;4912542;29;20728;-68
2023/09/25 09:43:43;;;;;;;2.87;2.67;;;29.60;51.30;;;28.87;32.08;101359.19;4911704;29;20622;-68
2023/09/25 09:46:12;;;;;;;4.00;2.50;;;27.70;52.10;;;27.87;33.23;101353.28;4923112;29;21311;-68
2023/09/25 09:48:41;;;;;;;2.57;1.87;;;27.70;53.80;;;26.90;34.63;101355.47;4908506;29;20631;-67
2023/09/25 09:51:12;;;;;;;3.47;2.10;;;26.70;55.10;;;26.27;35.80;101352.19;4922289;29;20649;-68
2023/09/25 09:53:39;;;;;;;2.00;1.90;;;26.00;56.30;;;25.92;36.57;101345.91;4909119;29;20646;-68
2023/09/25 09:56:06;;;;;;;5.07;2.07;;;25.50;57.40;;;25.53;37.12;101345.56;4925464;29;21119;-66
2023/09/25 09:58:36;;;;;;;3.67;2.53;;;25.20;58.10;;;25.28;38.42;101351.22;4901449;29;21296;-68
2023/09/25 10:01:03;;;;;;;1.90;1.80;;;24.90;59.20;;;24.99;38.54;101345.09;4907467;29;21245;-67
2023/09/25 10:03:31;;;;;;;2.40;2.00;;;24.60;60.20;;;24.74;39.47;101344.59;4908665;29;20622;-69
2023/09/25 10:05:59;;;;;;;2.30;1.87;;;24.30;60.80;;;24.45;39.56;101340.03;4910617;29;20676;-69
2023/09/25 10:08:26;;;;;;;3.50;1.90;;;24.00;60.90;;;24.24;39.93;101339.09;4907631;29;20642;-68
2023/09/25 10:11:20;;;;;;;1.93;1.77;;;23.80;61.70;;;24.22;39.88;101349.94;4905741;29;21214;-68
2023/09/25 10:13:47;;;;;;;1.87;1.77;;;23.70;61.60;;;24.20;39.94;101329.78;4909533;29;20727;-69
2023/09/25 10:16:15;;;;;;;2.70;2.20;;;23.80;61.70;;;24.49;39.73;101335.97;4913792;29;20682;-68
2023/09/25 10:18:43;;;;;;;2.40;2.20;;;24.20;61.80;;;25.12;39.43;101323.91;4907397;29;20704;-69
2023/09/25 10:21:14;;;;;;;1.90;1.63;;;24.90;61.00;;;25.81;37.07;101325.06;4912277;29;20999;-68